createdAt,value
2023-03-05T00:00:49.940Z,100.00
2023-03-05T00:03:16.656Z,100.00
2023-03-05T00:05:43.252Z,100.00
2023-03-05T00:08:09.810Z,100.00
2023-03-05T00:10:36.386Z,100.00
2023-03-05T00:13:03.069Z,100.00
2023-03-05T00:15:29.696Z,100.00
2023-03-05T00:17:56.230Z,100.00
2023-03-05T00:20:34.772Z,100.00
2023-03-05T00:23:02.092Z,100.00
2023-03-05T00:25:28.819Z,100.00
2023-03-05T00:27:55.379Z,100.00
2023-03-05T00:30:22.050Z,100.00
2023-03-05T00:32:48.624Z,100.00
2023-03-05T00:35:15.366Z,100.00
2023-03-05T00:37:41.895Z,100.00
2023-03-05T00:40:12.183Z,100.00
2023-03-05T00:42:38.948Z,100.00
2023-03-05T00:45:07.797Z,100.00
2023-03-05T00:47:34.795Z,100.00
2023-03-05T00:50:02.391Z,100.00
2023-03-05T00:52:28.949Z,100.00
2023-03-05T00:54:55.561Z,100.00
2023-03-05T00:57:22.218Z,100.00
2023-03-05T00:59:48.792Z,100.00
2023-03-05T01:02:15.568Z,100.00
2023-03-05T01:04:45.833Z,100.00
2023-03-05T01:07:13.033Z,100.00
2023-03-05T01:09:39.638Z,100.00
2023-03-05T01:12:06.613Z,100.00
2023-03-05T01:14:34.594Z,100.00
2023-03-05T01:17:01.602Z,100.00
2023-03-05T01:19:28.270Z,100.00
2023-03-05T01:21:55.094Z,100.00
2023-03-05T01:24:22.367Z,100.00
2023-03-05T01:26:49.683Z,100.00
2023-03-05T01:29:16.384Z,100.00
2023-03-05T01:31:43.172Z,100.00
2023-03-05T01:34:10.022Z,100.00
2023-03-05T01:36:36.666Z,100.00
2023-03-05T01:39:03.503Z,100.00
2023-03-05T01:41:30.716Z,100.00
2023-03-05T01:43:58.161Z,100.00
2023-03-05T01:46:29.506Z,100.00
2023-03-05T01:49:02.147Z,100.00
2023-03-05T01:51:51.641Z,100.00
2023-03-05T01:54:20.931Z,100.00
2023-03-05T01:56:50.353Z,100.00
2023-03-05T01:59:17.843Z,100.00
2023-03-05T02:01:48.212Z,100.00
2023-03-05T02:04:18.686Z,100.00
2023-03-05T02:06:46.917Z,100.00
2023-03-05T02:09:13.655Z,100.00
2023-03-05T02:11:41.147Z,100.00
2023-03-05T02:14:10.094Z,100.00
2023-03-05T02:16:38.495Z,100.00
2023-03-05T02:19:12.129Z,100.00
2023-03-05T02:21:45.293Z,100.00
2023-03-05T02:24:13.877Z,100.00
2023-03-05T02:26:43.415Z,100.00
2023-03-05T02:29:14.162Z,100.00
2023-03-05T02:31:41.839Z,100.00
2023-03-05T02:34:08.510Z,100.00
2023-03-05T02:36:35.111Z,100.00
2023-03-05T02:39:01.816Z,100.00
2023-03-05T02:41:28.486Z,100.00
2023-03-05T02:43:57.517Z,100.00
2023-03-05T02:46:24.181Z,100.00
2023-03-05T02:48:50.872Z,100.00
2023-03-05T02:51:17.575Z,100.00
2023-03-05T02:53:45.483Z,100.00
2023-03-05T02:56:12.843Z,100.00
2023-03-05T02:58:39.788Z,100.00
2023-03-05T03:01:06.348Z,100.00
2023-03-05T03:03:32.954Z,100.00
2023-03-05T03:05:59.571Z,100.00
2023-03-05T03:08:26.280Z,100.00
2023-03-05T03:10:52.947Z,100.00
2023-03-05T03:13:19.534Z,100.00
2023-03-05T03:15:46.183Z,100.00
2023-03-05T03:18:12.972Z,100.00
2023-03-05T03:20:39.819Z,100.00
2023-03-05T03:23:07.114Z,100.00
2023-03-05T03:25:33.884Z,100.00
2023-03-05T03:28:00.561Z,100.00
2023-03-05T03:30:27.219Z,100.00
2023-03-05T03:32:53.852Z,100.00
2023-03-05T03:35:20.501Z,100.00
2023-03-05T03:37:48.365Z,100.00
2023-03-05T03:40:15.070Z,100.00
2023-03-05T03:42:41.762Z,100.00
2023-03-05T03:45:09.040Z,100.00
2023-03-05T03:47:35.756Z,100.00
2023-03-05T03:50:02.631Z,100.00
2023-03-05T03:52:29.648Z,100.00
2023-03-05T03:55:01.387Z,100.00
2023-03-05T03:57:33.417Z,100.00
2023-03-05T04:00:00.600Z,100.00
2023-03-05T04:02:27.466Z,100.00
2023-03-05T04:04:54.092Z,100.00
2023-03-05T04:07:21.582Z,100.00
2023-03-05T04:09:48.728Z,100.00
2023-03-05T04:12:18.089Z,100.00
2023-03-05T04:14:46.574Z,100.00
2023-03-05T04:17:13.603Z,100.00
2023-03-05T04:19:40.948Z,100.00
2023-03-05T04:22:11.230Z,100.00
2023-03-05T04:24:38.695Z,100.00
2023-03-05T04:27:06.767Z,100.00
2023-03-05T04:29:33.896Z,100.00
2023-03-05T04:32:00.727Z,100.00
2023-03-05T04:34:27.318Z,100.00
2023-03-05T04:36:53.954Z,100.00
2023-03-05T04:39:23.595Z,100.00
2023-03-05T04:41:50.056Z,100.00
2023-03-05T04:44:17.746Z,100.00
2023-03-05T04:46:44.570Z,100.00
2023-03-05T04:49:11.233Z,100.00
2023-03-05T04:51:37.865Z,100.00
2023-03-05T04:54:04.770Z,100.00
2023-03-05T04:56:31.407Z,100.00
2023-03-05T04:58:58.748Z,100.00
2023-03-05T05:01:25.745Z,100.00
2023-03-05T05:03:52.378Z,100.00
2023-03-05T05:06:18.955Z,100.00
2023-03-05T05:08:45.489Z,100.00
2023-03-05T05:11:14.417Z,100.00
2023-03-05T05:13:41.038Z,100.00
2023-03-05T05:16:08.747Z,100.00
2023-03-05T05:18:35.628Z,100.00
2023-03-05T05:21:02.223Z,100.00
2023-03-05T05:23:28.887Z,100.00
2023-03-05T05:26:00.071Z,100.00
2023-03-05T05:28:27.287Z,100.00
2023-03-05T05:30:54.549Z,100.00
2023-03-05T05:33:22.240Z,100.00
2023-03-05T05:35:49.069Z,100.00
2023-03-05T05:38:15.624Z,100.00
2023-03-05T05:40:42.635Z,100.00
2023-03-05T05:43:09.249Z,100.00
2023-03-05T05:45:38.595Z,100.00
2023-03-05T05:48:05.250Z,100.00
2023-03-05T05:50:31.826Z,100.00
2023-03-05T05:52:58.438Z,100.00
2023-03-05T05:55:25.072Z,100.00
2023-03-05T05:57:51.606Z,100.00
2023-03-05T06:00:18.614Z,100.00
2023-03-05T06:02:45.258Z,100.00
2023-03-05T06:05:15.006Z,100.00
2023-03-05T06:07:41.748Z,100.00
2023-03-05T06:10:09.926Z,100.00
2023-03-05T06:12:36.905Z,100.00
2023-03-05T06:15:03.837Z,100.00
2023-03-05T06:17:31.224Z,100.00
2023-03-05T06:19:58.917Z,100.00
2023-03-05T06:22:25.599Z,100.00
2023-03-05T06:24:52.316Z,100.00
2023-03-05T06:27:18.942Z,100.00
2023-03-05T06:29:45.479Z,100.00
2023-03-05T06:32:12.295Z,100.00
2023-03-05T06:34:38.969Z,100.00
2023-03-05T06:37:05.653Z,100.00
2023-03-05T06:39:32.282Z,100.00
2023-03-05T06:41:58.855Z,100.00
2023-03-05T06:44:25.774Z,100.00
2023-03-05T06:46:52.590Z,100.00
2023-03-05T06:49:19.286Z,100.00
2023-03-05T06:51:45.883Z,100.00
2023-03-05T06:54:14.674Z,100.00
2023-03-05T06:56:44.105Z,100.00
2023-03-05T06:59:12.734Z,100.00
2023-03-05T07:01:39.348Z,100.00
2023-03-05T07:04:06.811Z,100.00
2023-03-05T07:06:35.244Z,100.00
2023-03-05T07:09:03.763Z,100.00
2023-03-05T07:11:30.509Z,100.00
2023-03-05T07:13:57.452Z,100.00
2023-03-05T07:16:29.303Z,100.00
2023-03-05T07:18:58.887Z,100.00
2023-03-05T07:21:28.021Z,100.00
2023-03-05T07:23:58.136Z,100.00
2023-03-05T07:26:25.657Z,100.00
2023-03-05T07:28:52.410Z,100.00
2023-03-05T07:31:21.393Z,100.00
2023-03-05T07:33:49.927Z,100.00
2023-03-05T07:36:17.285Z,100.00
2023-03-05T07:38:44.141Z,100.00
2023-03-05T07:41:13.442Z,100.00
2023-03-05T07:43:40.262Z,100.00
2023-03-05T07:46:08.969Z,100.00
2023-03-05T07:48:35.664Z,100.00
2023-03-05T07:51:05.012Z,100.00
2023-03-05T07:53:31.600Z,100.00
2023-03-05T07:55:58.287Z,100.00
2023-03-05T07:58:25.237Z,100.00
2023-03-05T08:00:51.883Z,100.00
2023-03-05T08:03:18.846Z,100.00
2023-03-05T08:05:45.907Z,100.00
2023-03-05T08:08:12.566Z,100.00
2023-03-05T08:10:39.234Z,100.00
2023-03-05T08:13:06.407Z,100.00
2023-03-05T08:15:32.992Z,100.00
2023-03-05T08:18:00.359Z,100.00
2023-03-05T08:20:26.934Z,100.00
2023-03-05T08:22:53.562Z,100.00
2023-03-05T08:25:20.152Z,100.00
2023-03-05T08:27:47.451Z,100.00
2023-03-05T08:30:19.730Z,100.00
2023-03-05T08:32:48.171Z,100.00
2023-03-05T08:35:14.806Z,100.00
2023-03-05T08:37:41.400Z,100.00
2023-03-05T08:40:08.676Z,100.00
2023-03-05T08:42:35.223Z,100.00
2023-03-05T08:45:01.835Z,100.00
2023-03-05T08:47:28.540Z,100.00
2023-03-05T08:49:57.142Z,100.00
2023-03-05T08:52:23.841Z,100.00
2023-03-05T08:54:50.517Z,100.00
2023-03-05T08:57:17.195Z,100.00
2023-03-05T08:59:43.796Z,100.00
2023-03-05T09:02:12.501Z,100.00
2023-03-05T09:04:39.843Z,100.00
2023-03-05T09:07:06.769Z,100.00
2023-03-05T09:09:34.000Z,100.00
2023-03-05T09:12:01.174Z,100.00
2023-03-05T09:14:28.602Z,100.00
2023-03-05T09:16:56.762Z,100.00
2023-03-05T09:19:23.887Z,100.00
2023-03-05T09:21:50.557Z,100.00
2023-03-05T09:24:17.200Z,100.00
2023-03-05T09:26:44.152Z,100.00
2023-03-05T09:29:11.106Z,100.00
2023-03-05T09:31:38.417Z,100.00
2023-03-05T09:34:05.794Z,100.00
2023-03-05T09:36:32.704Z,100.00
2023-03-05T09:38:59.385Z,100.00
2023-03-05T09:41:50.856Z,100.00
2023-03-05T09:44:23.747Z,100.00
2023-03-05T09:47:38.380Z,100.00
2023-03-05T09:50:25.196Z,100.00
2023-03-05T09:52:58.112Z,100.00
2023-03-05T09:55:33.079Z,100.00
2023-03-05T09:58:06.262Z,100.00
2023-03-05T10:00:45.122Z,100.00
2023-03-05T10:03:22.311Z,100.00
2023-03-05T10:06:24.549Z,100.00
2023-03-05T10:08:57.765Z,100.00
2023-03-05T10:11:42.828Z,99.77
2023-03-05T10:14:32.664Z,97.26
2023-03-05T10:17:02.748Z,100.00
2023-03-05T10:20:04.342Z,100.00
2023-03-05T10:22:37.961Z,98.58
2023-03-05T10:25:20.022Z,100.00
2023-03-05T10:27:54.263Z,100.00
2023-03-05T10:30:30.327Z,100.00
2023-03-05T10:33:20.097Z,100.00
2023-03-05T10:36:26.312Z,100.00
2023-03-05T10:38:59.965Z,100.00
2023-03-05T10:41:53.495Z,100.00
2023-03-05T10:44:49.038Z,98.96
2023-03-05T10:47:24.200Z,93.52
2023-03-05T10:49:53.524Z,91.58
2023-03-05T10:52:29.507Z,91.18
2023-03-05T10:54:56.132Z,91.80
2023-03-05T10:57:25.726Z,89.83
2023-03-05T11:00:08.214Z,89.26
2023-03-05T11:02:53.755Z,88.37
2023-03-05T11:05:38.324Z,88.73
2023-03-05T11:08:26.321Z,90.25
2023-03-05T11:11:05.708Z,88.83
2023-03-05T11:13:33.793Z,89.37
2023-03-05T11:16:02.145Z,87.26
2023-03-05T11:18:34.257Z,88.05
2023-03-05T11:21:19.533Z,88.01
2023-03-05T11:24:15.463Z,88.82
2023-03-05T11:26:53.637Z,87.15
2023-03-05T11:29:28.016Z,82.76
2023-03-05T11:31:54.957Z,80.71
2023-03-05T11:34:31.309Z,81.23
2023-03-05T11:37:04.566Z,77.86
2023-03-05T11:39:35.124Z,73.07
2023-03-05T11:42:15.016Z,74.93
2023-03-05T11:44:49.480Z,69.84
2023-03-05T11:47:49.251Z,72.19
2023-03-05T11:50:16.060Z,70.62
2023-03-05T11:52:50.125Z,72.82
2023-03-05T11:55:35.448Z,73.48
2023-03-05T11:58:39.335Z,74.89
2023-03-05T12:01:17.875Z,70.05
2023-03-05T12:03:44.939Z,71.34
2023-03-05T12:06:28.660Z,74.05
2023-03-05T12:08:58.120Z,73.48
2023-03-05T12:11:31.416Z,76.97
2023-03-05T12:14:05.209Z,71.16
2023-03-05T12:16:45.325Z,70.52
2023-03-05T12:19:28.513Z,66.56
2023-03-05T12:21:57.357Z,66.46
2023-03-05T12:24:26.704Z,66.10
2023-03-05T12:27:03.565Z,65.43
2023-03-05T12:29:32.861Z,62.79
2023-03-05T12:32:04.268Z,66.18
2023-03-05T12:34:48.104Z,63.32
2023-03-05T12:37:34.582Z,62.51
2023-03-05T12:40:12.251Z,63.26
2023-03-05T12:42:38.787Z,64.26
2023-03-05T12:45:19.150Z,65.47
2023-03-05T12:48:12.590Z,67.08
2023-03-05T12:50:39.118Z,71.09
2023-03-05T12:53:11.819Z,72.50
2023-03-05T12:55:39.959Z,71.42
2023-03-05T12:58:35.875Z,74.44
2023-03-05T13:01:22.667Z,66.35
2023-03-05T13:04:00.821Z,68.47
2023-03-05T13:06:31.156Z,70.25
2023-03-05T13:09:08.148Z,69.95
2023-03-05T13:11:39.038Z,72.09
2023-03-05T13:14:23.509Z,71.35
2023-03-05T13:16:50.328Z,70.81
2023-03-05T13:19:17.937Z,70.55
2023-03-05T13:21:44.747Z,69.96
2023-03-05T13:24:19.337Z,67.76
2023-03-05T13:26:46.035Z,69.89
2023-03-05T13:29:12.583Z,70.19
2023-03-05T13:31:45.522Z,72.29
2023-03-05T13:34:20.994Z,70.99
2023-03-05T13:37:12.624Z,70.95
2023-03-05T13:40:16.954Z,69.34
2023-03-05T13:42:43.589Z,68.94
2023-03-05T13:45:28.706Z,68.86
2023-03-05T13:48:01.172Z,68.31
2023-03-05T13:50:29.611Z,67.58
2023-03-05T13:53:13.214Z,66.93
2023-03-05T13:55:39.901Z,64.62
2023-03-05T13:58:06.564Z,63.42
2023-03-05T14:00:39.041Z,64.06
2023-03-05T14:03:20.754Z,63.83
2023-03-05T14:05:49.929Z,64.01
2023-03-05T14:08:25.448Z,63.24
2023-03-05T14:10:54.527Z,63.31
2023-03-05T14:13:24.592Z,62.43
2023-03-05T14:16:09.523Z,63.41
2023-03-05T14:18:36.463Z,64.00
2023-03-05T14:21:05.559Z,65.39
2023-03-05T14:23:43.708Z,64.08
2023-03-05T14:26:40.019Z,63.27
2023-03-05T14:29:06.868Z,62.42
2023-03-05T14:31:45.864Z,63.40
2023-03-05T14:34:24.915Z,63.57
2023-03-05T14:36:54.000Z,63.78
2023-03-05T14:39:47.024Z,64.90
2023-03-05T14:42:22.807Z,66.83
2023-03-05T14:44:49.381Z,65.23
2023-03-05T14:47:19.244Z,65.13
2023-03-05T14:49:46.021Z,64.77
2023-03-05T14:52:18.390Z,65.28
2023-03-05T14:54:45.666Z,65.69
2023-03-05T14:57:21.896Z,66.29
2023-03-05T14:59:48.764Z,67.43
2023-03-05T15:02:21.369Z,66.92
2023-03-05T15:04:48.480Z,65.27
2023-03-05T15:07:26.671Z,66.76
2023-03-05T15:09:53.334Z,67.80
2023-03-05T15:12:24.464Z,67.74
2023-03-05T15:14:52.962Z,67.35
2023-03-05T15:17:43.141Z,66.70
2023-03-05T15:20:30.481Z,67.01
2023-03-05T15:22:57.085Z,66.20
2023-03-05T15:25:28.754Z,66.78
2023-03-05T15:27:55.532Z,65.83
2023-03-05T15:30:25.747Z,65.46
2023-03-05T15:32:53.632Z,64.61
2023-03-05T15:35:20.646Z,63.55
2023-03-05T15:37:47.214Z,64.29
2023-03-05T15:40:13.963Z,64.73
2023-03-05T15:42:40.807Z,63.48
2023-03-05T15:45:07.732Z,64.60
2023-03-05T15:47:34.440Z,64.56
2023-03-05T15:50:01.082Z,63.18
2023-03-05T15:52:27.669Z,62.82
2023-03-05T15:54:54.274Z,62.51
2023-03-05T15:57:23.891Z,62.89
2023-03-05T15:59:50.398Z,62.13
2023-03-05T16:02:17.151Z,62.83
2023-03-05T16:04:43.844Z,63.48
2023-03-05T16:07:11.673Z,63.53
2023-03-05T16:09:42.743Z,63.12
2023-03-05T16:12:15.084Z,63.61
2023-03-05T16:14:42.566Z,63.05
2023-03-05T16:17:09.327Z,62.82
2023-03-05T16:19:40.332Z,63.59
2023-03-05T16:22:06.938Z,62.43
2023-03-05T16:24:41.426Z,61.86
2023-03-05T16:27:08.078Z,62.05
2023-03-05T16:29:34.706Z,62.50
2023-03-05T16:32:05.673Z,63.39
2023-03-05T16:34:34.365Z,64.47
2023-03-05T16:37:04.229Z,64.80
2023-03-05T16:39:31.221Z,64.44
2023-03-05T16:41:57.807Z,64.16
2023-03-05T16:44:24.847Z,65.98
2023-03-05T16:46:53.995Z,65.95
2023-03-05T16:49:21.377Z,66.64
2023-03-05T16:51:48.594Z,66.08
2023-03-05T16:54:15.463Z,65.93
2023-03-05T16:56:42.112Z,67.61
2023-03-05T16:59:08.798Z,66.60
2023-03-05T17:01:35.441Z,66.23
2023-03-05T17:04:02.172Z,68.33
2023-03-05T17:06:30.737Z,67.91
2023-03-05T17:08:58.388Z,69.21
2023-03-05T17:11:25.825Z,67.39
2023-03-05T17:13:52.579Z,67.99
2023-03-05T17:16:20.678Z,69.03
2023-03-05T17:18:48.038Z,68.72
2023-03-05T17:21:15.402Z,68.35
2023-03-05T17:23:42.329Z,68.71
2023-03-05T17:26:11.782Z,68.67
2023-03-05T17:28:38.708Z,70.43
2023-03-05T17:31:05.768Z,71.89
2023-03-05T17:33:32.761Z,72.02
2023-03-05T17:36:00.212Z,72.36
2023-03-05T17:38:27.531Z,72.48
2023-03-05T17:40:54.168Z,73.69
2023-03-05T17:43:20.853Z,74.47
2023-03-05T17:45:47.756Z,71.89
2023-03-05T17:48:15.913Z,71.59
2023-03-05T17:50:44.919Z,72.68
2023-03-05T17:53:11.896Z,71.88
2023-03-05T17:55:39.006Z,73.10
2023-03-05T17:58:05.610Z,74.14
2023-03-05T18:00:32.555Z,74.99
2023-03-05T18:02:59.933Z,75.73
2023-03-05T18:05:28.056Z,75.92
2023-03-05T18:07:55.495Z,76.29
2023-03-05T18:10:24.949Z,76.61
2023-03-05T18:12:51.976Z,76.83
2023-03-05T18:15:20.127Z,74.95
2023-03-05T18:17:46.797Z,74.39
2023-03-05T18:20:26.691Z,75.03
2023-03-05T18:22:53.908Z,75.50
2023-03-05T18:25:20.816Z,76.92
2023-03-05T18:27:48.141Z,76.64
2023-03-05T18:30:14.979Z,77.92
2023-03-05T18:32:41.664Z,78.72
2023-03-05T18:35:12.682Z,78.02
2023-03-05T18:37:39.769Z,77.30
2023-03-05T18:40:09.892Z,80.35
2023-03-05T18:42:39.710Z,80.22
2023-03-05T18:45:09.694Z,79.65
2023-03-05T18:47:36.756Z,79.82
2023-03-05T18:50:03.535Z,80.62
2023-03-05T18:52:30.198Z,79.71
2023-03-05T18:54:56.792Z,79.59
2023-03-05T18:57:26.584Z,81.00
2023-03-05T18:59:53.185Z,80.93
2023-03-05T19:02:19.906Z,81.65
2023-03-05T19:04:46.627Z,82.69
2023-03-05T19:07:13.256Z,81.59
2023-03-05T19:09:58.146Z,81.96
2023-03-05T19:12:35.147Z,82.69
2023-03-05T19:15:03.083Z,83.52
2023-03-05T19:17:31.556Z,83.14
2023-03-05T19:19:59.652Z,85.29
2023-03-05T19:22:27.083Z,83.13
2023-03-05T19:25:00.138Z,83.74
2023-03-05T19:27:27.240Z,83.20
2023-03-05T19:29:53.875Z,83.50
2023-03-05T19:32:23.741Z,84.12
2023-03-05T19:34:54.371Z,83.35
2023-03-05T19:37:21.252Z,85.50
2023-03-05T19:39:48.346Z,86.72
2023-03-05T19:42:15.141Z,87.22
2023-03-05T19:44:42.242Z,85.58
2023-03-05T19:47:08.819Z,84.00
2023-03-05T19:49:35.987Z,85.01
2023-03-05T19:52:04.146Z,86.82
2023-03-05T19:54:31.019Z,85.48
2023-03-05T19:56:58.891Z,85.50
2023-03-05T19:59:25.879Z,85.24
2023-03-05T20:01:53.138Z,85.08
2023-03-05T20:04:22.508Z,85.35
2023-03-05T20:06:49.394Z,86.51
2023-03-05T20:09:16.957Z,85.10
2023-03-05T20:11:44.202Z,85.68
2023-03-05T20:14:13.044Z,86.87
2023-03-05T20:16:39.943Z,87.51
2023-03-05T20:19:08.285Z,87.59
2023-03-05T20:21:38.910Z,86.73
2023-03-05T20:24:09.808Z,86.73
2023-03-05T20:26:38.474Z,87.26
2023-03-05T20:29:05.743Z,87.38
2023-03-05T20:31:35.252Z,86.68
2023-03-05T20:34:02.018Z,85.55
2023-03-05T20:36:28.714Z,85.74
2023-03-05T20:38:55.776Z,87.39
2023-03-05T20:41:22.653Z,88.28
2023-03-05T20:43:51.619Z,88.34
2023-03-05T20:46:29.367Z,87.56
2023-03-05T20:48:59.023Z,86.12
2023-03-05T20:51:27.157Z,88.34
2023-03-05T20:53:58.008Z,87.61
2023-03-05T20:56:27.859Z,87.38
2023-03-05T20:58:58.354Z,87.66
2023-03-05T21:01:28.700Z,86.85
2023-03-05T21:03:57.184Z,87.86
2023-03-05T21:06:25.488Z,88.11
2023-03-05T21:08:52.586Z,88.09
2023-03-05T21:11:19.507Z,87.96
2023-03-05T21:13:46.243Z,88.05
2023-03-05T21:16:18.414Z,88.27
2023-03-05T21:18:45.235Z,88.06
2023-03-05T21:21:11.841Z,88.17
2023-03-05T21:23:38.675Z,88.91
2023-03-05T21:26:05.752Z,88.60
2023-03-05T21:28:33.100Z,88.40
2023-03-05T21:31:07.398Z,88.62
2023-03-05T21:33:34.503Z,89.70
2023-03-05T21:36:01.474Z,89.49
2023-03-05T21:38:30.456Z,89.88
2023-03-05T21:40:58.758Z,90.14
2023-03-05T21:43:26.985Z,90.38
2023-03-05T21:45:54.855Z,91.23
2023-03-05T21:48:22.483Z,92.31
2023-03-05T21:50:49.885Z,91.40
2023-03-05T21:53:17.853Z,90.91
2023-03-05T21:56:03.164Z,90.16
2023-03-05T21:58:31.944Z,91.54
2023-03-05T22:00:59.423Z,90.68
2023-03-05T22:03:26.966Z,90.01
2023-03-05T22:05:54.301Z,89.83
2023-03-05T22:08:22.230Z,90.79
2023-03-05T22:10:48.961Z,91.60
2023-03-05T22:13:17.722Z,92.04
2023-03-05T22:15:53.591Z,91.50
2023-03-05T22:18:26.104Z,91.65
2023-03-05T22:20:53.258Z,92.34
2023-03-05T22:23:22.364Z,92.95
2023-03-05T22:26:00.123Z,92.60
2023-03-05T22:28:27.751Z,92.46
2023-03-05T22:30:54.499Z,92.96
2023-03-05T22:33:23.014Z,93.18
2023-03-05T22:35:50.260Z,92.15
2023-03-05T22:38:17.958Z,93.19
2023-03-05T22:40:47.394Z,93.12
2023-03-05T22:43:15.513Z,92.80
2023-03-05T22:45:42.194Z,92.99
2023-03-05T22:48:12.364Z,93.90
2023-03-05T22:50:40.978Z,92.80
2023-03-05T22:53:08.569Z,92.63
2023-03-05T22:55:41.812Z,92.11
2023-03-05T22:58:09.101Z,92.70
2023-03-05T23:00:35.992Z,94.38
2023-03-05T23:03:02.850Z,94.18
2023-03-05T23:05:29.603Z,92.88
2023-03-05T23:07:56.301Z,94.19
2023-03-05T23:10:27.346Z,92.90
2023-03-05T23:12:55.576Z,93.84
2023-03-05T23:15:25.228Z,93.59
2023-03-05T23:17:51.775Z,94.43
2023-03-05T23:20:21.080Z,94.08
2023-03-05T23:22:49.424Z,94.68
2023-03-05T23:25:16.716Z,94.21
2023-03-05T23:27:44.079Z,93.48
2023-03-05T23:30:21.727Z,92.99
2023-03-05T23:33:08.220Z,92.84
2023-03-05T23:35:40.589Z,92.83
2023-03-05T23:38:13.933Z,92.68
2023-03-05T23:40:46.383Z,93.37
2023-03-05T23:43:14.411Z,92.68
2023-03-05T23:45:42.381Z,93.20
2023-03-05T23:48:09.102Z,93.43
2023-03-05T23:50:38.918Z,93.02
2023-03-05T23:53:06.708Z,91.85
2023-03-05T23:55:37.328Z,92.69
2023-03-05T23:58:04.042Z,93.73
